createdAt,value
2017-07-12T00:00:13.018Z,19.06
2017-07-12T00:01:13.057Z,19.05
2017-07-12T00:02:13.099Z,19.08
2017-07-12T00:03:13.139Z,19.17
2017-07-12T00:04:13.183Z,19.05
2017-07-12T00:05:13.217Z,19.06
2017-07-12T00:06:13.257Z,19.06
2017-07-12T00:07:13.295Z,19.15
2017-07-12T00:08:13.334Z,19.17
2017-07-12T00:09:13.365Z,19.15
2017-07-12T00:10:13.411Z,19.05
2017-07-12T00:11:13.454Z,19.06
2017-07-12T00:12:13.484Z,19.02
2017-07-12T00:13:13.528Z,19.11
2017-07-12T00:14:13.579Z,19.13
2017-07-12T00:15:13.625Z,19.02
2017-07-12T00:16:13.643Z,19.1
2017-07-12T00:17:13.704Z,19.02
2017-07-12T00:18:13.728Z,18.98
2017-07-12T00:19:13.769Z,18.97
2017-07-12T00:20:13.864Z,18.91
2017-07-12T00:21:13.840Z,18.87
2017-07-12T00:22:13.885Z,18.82
2017-07-12T00:23:13.920Z,18.9
2017-07-12T00:24:13.965Z,18.82
2017-07-12T00:25:14.005Z,18.82
2017-07-12T00:26:14.041Z,18.82
2017-07-12T00:27:14.074Z,18.8
2017-07-12T00:28:14.124Z,18.67
2017-07-12T00:29:14.156Z,18.68
2017-07-12T00:30:14.201Z,18.74
2017-07-12T00:31:14.242Z,18.74
2017-07-12T00:32:14.271Z,18.64
2017-07-12T00:33:14.322Z,18.65
2017-07-12T00:34:14.353Z,18.61
2017-07-12T00:35:14.399Z,18.67
2017-07-12T00:36:14.432Z,18.62
2017-07-12T00:37:14.475Z,18.61
2017-07-12T00:38:14.519Z,18.61
2017-07-12T00:39:14.548Z,18.64
2017-07-12T00:40:14.598Z,18.54
2017-07-12T00:41:14.633Z,18.43
2017-07-12T00:42:14.672Z,18.54
2017-07-12T00:43:14.713Z,18.44
2017-07-12T00:44:14.752Z,18.54
2017-07-12T00:45:14.792Z,18.49
2017-07-12T00:46:14.823Z,18.49
2017-07-12T00:47:14.872Z,18.49
2017-07-12T00:48:14.902Z,18.46
2017-07-12T00:49:14.950Z,18.47
2017-07-12T00:50:14.981Z,18.49
2017-07-12T00:51:15.020Z,18.39
2017-07-12T00:52:15.058Z,18.46
2017-07-12T00:53:15.099Z,18.47
2017-07-12T00:54:15.144Z,18.4
2017-07-12T00:55:15.186Z,18.44
2017-07-12T00:56:15.224Z,18.37
2017-07-12T00:57:15.261Z,18.44
2017-07-12T00:58:15.294Z,18.44
2017-07-12T00:59:15.343Z,18.42
2017-07-12T01:00:15.381Z,18.39
2017-07-12T01:01:15.419Z,18.42
2017-07-12T01:02:15.460Z,18.33
2017-07-12T01:03:15.497Z,18.43
2017-07-12T01:04:15.529Z,18.39
2017-07-12T01:05:15.568Z,18.36
2017-07-12T01:06:15.617Z,18.34
2017-07-12T01:07:15.649Z,18.4
2017-07-12T01:08:16.013Z,18.36
2017-07-12T01:09:15.733Z,18.33
2017-07-12T01:10:15.764Z,18.27
2017-07-12T01:11:15.811Z,18.27
2017-07-12T01:12:15.848Z,18.24
2017-07-12T01:13:15.882Z,18.29
2017-07-12T01:14:15.932Z,18.29
2017-07-12T01:15:15.965Z,18.24
2017-07-12T01:16:15.999Z,18.19
2017-07-12T01:17:16.046Z,18.17
2017-07-12T01:18:16.084Z,18.15
2017-07-12T01:19:16.123Z,18.12
2017-07-12T01:20:16.154Z,18.1
2017-07-12T01:21:16.193Z,18.18
2017-07-12T01:22:16.240Z,18.18
2017-07-12T01:23:16.279Z,18.1
2017-07-12T01:24:16.312Z,18.07
2017-07-12T01:25:16.358Z,18.07
2017-07-12T01:26:16.390Z,18.13
2017-07-12T01:27:16.432Z,18.06
2017-07-12T01:28:16.467Z,18.09
2017-07-12T01:29:16.513Z,18.12
2017-07-12T01:30:16.545Z,18.15
2017-07-12T01:31:16.594Z,18.13
2017-07-12T01:32:16.623Z,18.03
2017-07-12T01:33:16.673Z,18.12
2017-07-12T01:34:16.708Z,18.07
2017-07-12T01:35:16.746Z,18.07
2017-07-12T01:36:16.781Z,17.97
2017-07-12T01:37:16.817Z,18.09
2017-07-12T01:38:16.873Z,18.07
2017-07-12T01:39:16.897Z,18.02
2017-07-12T01:40:16.944Z,18.1
2017-07-12T01:41:16.976Z,18.07
2017-07-12T01:42:17.020Z,18.07
2017-07-12T01:43:17.059Z,18.09
2017-07-12T01:44:17.407Z,18.03
2017-07-12T01:45:17.138Z,18.09
2017-07-12T01:46:17.169Z,18.1
2017-07-12T01:47:17.217Z,18.07
2017-07-12T01:48:17.248Z,17.95
2017-07-12T01:49:17.294Z,18.1
2017-07-12T01:50:17.333Z,17.95
2017-07-12T01:51:17.372Z,18.06
2017-07-12T01:52:17.405Z,17.95
2017-07-12T01:53:17.452Z,18.09
2017-07-12T01:54:17.483Z,18.09
2017-07-12T01:55:17.527Z,18.07
2017-07-12T01:56:17.561Z,18.13
2017-07-12T01:57:17.605Z,18
2017-07-12T01:58:17.644Z,18.07
2017-07-12T01:59:17.676Z,17.95
2017-07-12T02:00:17.727Z,18.03
2017-07-12T02:01:17.764Z,18.02
2017-07-12T02:02:17.801Z,18.09
2017-07-12T02:03:17.840Z,18.1
2017-07-12T02:04:17.870Z,18.04
2017-07-12T02:05:17.911Z,18.06
2017-07-12T02:06:17.958Z,18.02
2017-07-12T02:07:17.989Z,18.07
2017-07-12T02:08:18.034Z,18.09
2017-07-12T02:09:18.072Z,18.07
2017-07-12T02:10:18.104Z,18.03
2017-07-12T02:11:18.144Z,18.06
2017-07-12T02:12:18.193Z,18.04
2017-07-12T02:13:18.233Z,18.03
2017-07-12T02:14:18.270Z,18.06
2017-07-12T02:15:18.309Z,17.91
2017-07-12T02:16:18.342Z,17.94
2017-07-12T02:17:18.386Z,17.97
2017-07-12T02:18:18.418Z,17.88
2017-07-12T02:19:18.467Z,17.89
2017-07-12T02:20:18.497Z,17.95
2017-07-12T02:21:18.858Z,17.92
2017-07-12T02:22:18.583Z,17.84
2017-07-12T02:23:18.618Z,17.91
2017-07-12T02:24:18.651Z,17.87
2017-07-12T02:25:18.699Z,17.81
2017-07-12T02:26:18.730Z,17.81
2017-07-12T02:27:18.770Z,17.91
2017-07-12T02:28:18.815Z,17.82
2017-07-12T02:29:18.856Z,17.88
2017-07-12T02:30:18.892Z,17.81
2017-07-12T02:31:18.933Z,17.82
2017-07-12T02:32:18.965Z,17.78
2017-07-12T02:33:19.009Z,17.81
2017-07-12T02:34:19.050Z,17.78
2017-07-12T02:35:19.089Z,17.85
2017-07-12T02:36:19.126Z,17.81
2017-07-12T02:37:19.159Z,17.76
2017-07-12T02:38:19.205Z,17.82
2017-07-12T02:39:19.234Z,17.82
2017-07-12T02:40:19.285Z,17.84
2017-07-12T02:41:19.324Z,17.76
2017-07-12T02:42:19.354Z,17.71
2017-07-12T02:43:19.398Z,17.76
2017-07-12T02:44:19.437Z,17.74
2017-07-12T02:45:19.470Z,17.71
2017-07-12T02:46:19.509Z,17.71
2017-07-12T02:47:19.555Z,17.7
2017-07-12T02:48:19.593Z,17.7
2017-07-12T02:49:19.626Z,17.59
2017-07-12T02:50:19.672Z,17.7
2017-07-12T02:51:19.708Z,17.69
2017-07-12T02:52:19.741Z,17.74
2017-07-12T02:53:19.790Z,17.73
2017-07-12T02:54:19.822Z,17.66
2017-07-12T02:55:19.868Z,17.64
2017-07-12T02:56:19.904Z,17.62
2017-07-12T02:57:19.938Z,17.67
2017-07-12T02:58:19.985Z,17.66
2017-07-12T02:59:20.025Z,17.63
2017-07-12T03:00:20.055Z,17.64
2017-07-12T03:01:20.098Z,17.67
2017-07-12T03:02:20.138Z,17.62
2017-07-12T03:03:20.177Z,17.62
2017-07-12T03:04:20.216Z,17.57
2017-07-12T03:05:20.253Z,17.5
2017-07-12T03:06:20.286Z,17.59
2017-07-12T03:07:20.334Z,17.63
2017-07-12T03:08:20.365Z,17.62
2017-07-12T03:09:20.410Z,17.55
2017-07-12T03:10:20.449Z,17.62
2017-07-12T03:11:20.479Z,17.57
2017-07-12T03:12:20.529Z,17.59
2017-07-12T03:13:20.566Z,17.51
2017-07-12T03:14:20.604Z,17.53
2017-07-12T03:15:20.643Z,17.66
2017-07-12T03:16:20.674Z,17.69
2017-07-12T03:17:20.720Z,17.66
2017-07-12T03:18:20.758Z,17.51
2017-07-12T03:19:20.790Z,17.69
2017-07-12T03:20:20.830Z,17.63
2017-07-12T03:21:20.878Z,17.55
2017-07-12T03:22:20.907Z,17.59
2017-07-12T03:23:20.956Z,17.66
2017-07-12T03:24:20.991Z,17.63
2017-07-12T03:25:21.030Z,17.59
2017-07-12T03:26:21.071Z,17.67
2017-07-12T03:27:21.111Z,17.69
2017-07-12T03:28:21.140Z,17.67
2017-07-12T03:29:21.186Z,17.67
2017-07-12T03:30:21.225Z,17.63
2017-07-12T03:31:21.258Z,17.71
2017-07-12T03:32:21.298Z,17.76
2017-07-12T03:33:21.336Z,17.82
2017-07-12T03:34:21.377Z,17.91
2017-07-12T03:35:21.424Z,18.02
2017-07-12T03:36:21.453Z,18.07
2017-07-12T03:37:21.554Z,18.39
2017-07-12T03:38:21.531Z,18.61
2017-07-12T03:39:21.586Z,18.77
2017-07-12T03:40:21.613Z,19.06
2017-07-12T03:41:21.655Z,19.39
2017-07-12T03:42:21.694Z,19.69
2017-07-12T03:43:21.736Z,19.91
2017-07-12T03:44:21.774Z,20.27
2017-07-12T03:45:21.810Z,20.47
2017-07-12T03:46:21.845Z,20.79
2017-07-12T03:47:21.895Z,20.96
2017-07-12T03:48:21.930Z,21.09
2017-07-12T03:49:21.974Z,21.32
2017-07-12T03:50:22.006Z,21.38
2017-07-12T03:51:22.054Z,21.64
2017-07-12T03:52:22.090Z,21.83
2017-07-12T03:53:22.136Z,22.09
2017-07-12T03:54:22.177Z,22.32
2017-07-12T03:55:22.210Z,22.6
2017-07-12T03:56:22.259Z,22.69
2017-07-12T03:57:22.298Z,22.67
2017-07-12T03:58:22.337Z,22.41
2017-07-12T03:59:22.381Z,22.17
2017-07-12T04:00:22.423Z,21.88
2017-07-12T04:01:22.462Z,21.61
2017-07-12T04:02:22.530Z,21.38
2017-07-12T04:03:22.542Z,21.2
2017-07-12T04:04:22.580Z,21.02
2017-07-12T04:05:22.750Z,20.81
2017-07-12T04:06:22.667Z,20.62
2017-07-12T04:07:22.701Z,20.42
2017-07-12T04:08:22.749Z,20.46
2017-07-12T04:09:22.778Z,20.42
2017-07-12T04:10:22.830Z,20.34
2017-07-12T04:11:22.863Z,20.33
2017-07-12T04:12:22.965Z,20.25
2017-07-12T04:13:22.951Z,20.23
2017-07-12T04:14:22.990Z,20.16
2017-07-12T04:15:23.021Z,20.23
2017-07-12T04:16:23.063Z,20.27
2017-07-12T04:17:23.103Z,20.31
2017-07-12T04:18:23.152Z,20.47
2017-07-12T04:19:23.193Z,20.42
2017-07-12T04:20:23.231Z,20.49
2017-07-12T04:21:23.274Z,20.41
2017-07-12T04:22:23.310Z,20.39
2017-07-12T04:23:23.343Z,20.41
2017-07-12T04:24:23.709Z,20.27
2017-07-12T04:25:23.424Z,20.28
2017-07-12T04:26:23.474Z,20.24
2017-07-12T04:27:23.506Z,20.13
2017-07-12T04:28:23.548Z,20.05
2017-07-12T04:29:23.588Z,20.06
2017-07-12T04:30:23.625Z,19.91
2017-07-12T04:31:23.665Z,19.91
2017-07-12T04:32:23.705Z,19.75
2017-07-12T04:33:23.751Z,19.72
2017-07-12T04:34:23.794Z,19.68
2017-07-12T04:35:23.831Z,19.65
2017-07-12T04:36:23.871Z,19.63
2017-07-12T04:37:23.903Z,19.5
2017-07-12T04:38:23.952Z,19.5
2017-07-12T04:39:23.982Z,19.51
2017-07-12T04:40:24.030Z,19.47
2017-07-12T04:41:24.069Z,19.57
2017-07-12T04:42:24.103Z,19.54
2017-07-12T04:43:24.470Z,19.51
2017-07-12T04:44:24.189Z,19.53
2017-07-12T04:45:24.226Z,19.51
2017-07-12T04:46:24.267Z,19.47
2017-07-12T04:47:24.317Z,19.57
2017-07-12T04:48:24.343Z,19.51
2017-07-12T04:49:24.391Z,19.54
2017-07-12T04:50:24.421Z,19.57
2017-07-12T04:51:24.463Z,19.65
2017-07-12T04:52:24.509Z,19.66
2017-07-12T04:53:24.543Z,19.65
2017-07-12T04:54:24.591Z,19.66
2017-07-12T04:55:24.627Z,19.65
2017-07-12T04:56:24.662Z,19.7
2017-07-12T04:57:24.710Z,19.69
2017-07-12T04:58:24.962Z,19.8
2017-07-12T04:59:24.780Z,19.86
2017-07-12T05:00:24.827Z,19.86
2017-07-12T05:01:24.868Z,19.91
2017-07-12T05:02:24.907Z,19.9
2017-07-12T05:03:24.942Z,19.86
2017-07-12T05:04:24.988Z,19.88
2017-07-12T05:05:25.347Z,19.9
2017-07-12T05:06:25.069Z,19.86
2017-07-12T05:07:25.100Z,19.9
2017-07-12T05:08:25.151Z,19.86
2017-07-12T05:09:25.187Z,19.86
2017-07-12T05:10:25.219Z,19.87
2017-07-12T05:11:25.269Z,19.8
2017-07-12T05:12:25.310Z,19.83
2017-07-12T05:13:25.341Z,19.73
2017-07-12T05:14:25.381Z,19.8
2017-07-12T05:15:25.425Z,19.78
2017-07-12T05:16:25.468Z,19.78
2017-07-12T05:17:25.505Z,19.75
2017-07-12T05:18:25.542Z,19.75
2017-07-12T05:19:25.587Z,19.79
2017-07-12T05:20:25.618Z,19.8
2017-07-12T05:21:25.660Z,19.79
2017-07-12T05:22:25.700Z,19.83
2017-07-12T05:23:25.739Z,19.79
2017-07-12T05:24:25.789Z,19.86
2017-07-12T05:25:25.821Z,19.88
2017-07-12T05:26:25.867Z,19.9
2017-07-12T05:27:25.905Z,19.95
2017-07-12T05:28:25.940Z,19.94
2017-07-12T05:29:25.986Z,19.98
2017-07-12T05:30:26.019Z,20.03
2017-07-12T05:31:26.059Z,20.08
2017-07-12T05:32:26.099Z,20.05
2017-07-12T05:33:26.140Z,20.08
2017-07-12T05:34:26.219Z,20.15
2017-07-12T05:35:26.220Z,20.16
2017-07-12T05:36:26.262Z,20.23
2017-07-12T05:37:26.896Z,20.31
2017-07-12T05:38:26.348Z,20.16
2017-07-12T05:39:26.767Z,20.28
2017-07-12T05:40:26.422Z,20.28
2017-07-12T05:41:26.917Z,20.35
2017-07-12T05:42:26.500Z,20.47
2017-07-12T05:43:26.549Z,20.53
2017-07-12T05:44:26.589Z,20.53
2017-07-12T05:45:26.621Z,20.62
2017-07-12T05:46:27.400Z,20.58
2017-07-12T05:47:26.712Z,20.71
2017-07-12T05:48:26.751Z,20.66
2017-07-12T05:49:26.790Z,20.69
2017-07-12T05:50:26.824Z,20.72
2017-07-12T05:51:26.872Z,20.77
2017-07-12T05:52:26.905Z,20.76
2017-07-12T05:53:26.953Z,20.86
2017-07-12T05:54:26.991Z,20.84
2017-07-12T05:55:27.032Z,20.9
2017-07-12T05:56:27.068Z,20.87
2017-07-12T05:57:27.115Z,20.87
2017-07-12T05:58:27.155Z,20.86
2017-07-12T05:59:27.196Z,20.9
2017-07-12T06:00:27.238Z,20.89
2017-07-12T06:01:27.273Z,20.91
2017-07-12T06:02:27.317Z,20.87
2017-07-12T06:03:27.363Z,20.87
2017-07-12T06:04:27.496Z,20.87
2017-07-12T06:05:27.435Z,20.87
2017-07-12T06:06:27.481Z,20.89
2017-07-12T06:07:27.512Z,20.86
2017-07-12T06:08:27.563Z,20.84
2017-07-12T06:09:27.596Z,20.74
2017-07-12T06:10:27.636Z,20.71
2017-07-12T06:11:27.683Z,20.76
2017-07-12T06:12:27.717Z,20.68
2017-07-12T06:13:27.767Z,20.69
2017-07-12T06:14:27.803Z,20.56
2017-07-12T06:15:27.846Z,20.61
2017-07-12T06:16:27.978Z,20.54
2017-07-12T06:17:27.924Z,20.56
2017-07-12T06:18:27.967Z,20.65
2017-07-12T06:19:28.039Z,20.54
2017-07-12T06:20:28.040Z,20.53
2017-07-12T06:21:28.089Z,20.5
2017-07-12T06:22:28.120Z,20.43
2017-07-12T06:23:28.169Z,20.41
2017-07-12T06:24:28.216Z,20.43
2017-07-12T06:25:28.248Z,20.39
2017-07-12T06:26:28.475Z,20.43
2017-07-12T06:27:28.430Z,20.49
2017-07-12T06:28:28.363Z,20.49
2017-07-12T06:29:28.412Z,20.34
2017-07-12T06:30:28.444Z,20.38
2017-07-12T06:31:28.483Z,20.43
2017-07-12T06:32:28.531Z,20.46
2017-07-12T06:33:28.571Z,20.41
2017-07-12T06:34:28.618Z,20.47
2017-07-12T06:35:28.647Z,20.41
2017-07-12T06:36:28.691Z,20.42
2017-07-12T06:37:28.733Z,20.43
2017-07-12T06:38:28.765Z,20.47
2017-07-12T06:39:28.816Z,20.56
2017-07-12T06:40:28.847Z,20.53
2017-07-12T06:41:30.127Z,20.58
2017-07-12T06:42:28.926Z,20.56
2017-07-12T06:43:28.967Z,20.56
2017-07-12T06:44:29.018Z,20.59
2017-07-12T06:45:29.047Z,20.56
2017-07-12T06:46:29.096Z,20.61
2017-07-12T06:47:29.134Z,20.59
2017-07-12T06:48:29.174Z,20.56
2017-07-12T06:49:29.212Z,20.56
2017-07-12T06:50:29.246Z,20.68
2017-07-12T06:51:29.299Z,20.76
2017-07-12T06:52:29.331Z,20.77
2017-07-12T06:53:29.370Z,20.84
2017-07-12T06:54:29.410Z,20.83
2017-07-12T06:55:29.449Z,20.84
2017-07-12T06:56:29.490Z,20.89
2017-07-12T06:57:29.538Z,20.9
2017-07-12T06:58:29.580Z,20.98
2017-07-12T06:59:29.615Z,20.96
2017-07-12T07:00:29.660Z,20.9
2017-07-12T07:01:29.704Z,20.95
2017-07-12T07:02:29.734Z,20.95
2017-07-12T07:03:29.773Z,20.93
2017-07-12T07:04:30.022Z,20.99
2017-07-12T07:05:29.860Z,20.95
2017-07-12T07:06:29.905Z,21.04
2017-07-12T07:07:29.945Z,20.98
2017-07-12T07:08:29.984Z,21.06
2017-07-12T07:09:30.019Z,21.11
2017-07-12T07:10:30.434Z,21.14
2017-07-12T07:11:30.107Z,21.14
2017-07-12T07:12:30.139Z,21.17
2017-07-12T07:13:30.215Z,21.24
2017-07-12T07:14:30.229Z,21.27
2017-07-12T07:15:30.262Z,21.24
2017-07-12T07:16:30.310Z,21.27
2017-07-12T07:17:30.351Z,21.35
2017-07-12T07:18:30.385Z,21.35
2017-07-12T07:19:30.423Z,21.34
2017-07-12T07:20:30.464Z,21.27
2017-07-12T07:21:30.518Z,21.3
2017-07-12T07:22:30.585Z,21.29
2017-07-12T07:23:30.588Z,21.38
2017-07-12T07:24:30.956Z,21.29
2017-07-12T07:25:30.674Z,21.35
2017-07-12T07:26:30.710Z,21.36
2017-07-12T07:27:30.759Z,21.39
2017-07-12T07:28:30.802Z,21.39
2017-07-12T07:29:30.833Z,21.35
2017-07-12T07:30:30.880Z,21.41
2017-07-12T07:31:30.915Z,21.46
2017-07-12T07:32:30.964Z,21.51
2017-07-12T07:33:30.995Z,21.5
2017-07-12T07:34:31.042Z,21.63
2017-07-12T07:35:31.085Z,21.61
2017-07-12T07:36:31.127Z,21.6
2017-07-12T07:37:31.160Z,21.53
2017-07-12T07:38:31.201Z,21.66
2017-07-12T07:39:31.287Z,21.66
2017-07-12T07:40:31.292Z,21.72
2017-07-12T07:41:31.325Z,21.72
2017-07-12T07:42:31.363Z,21.76
2017-07-12T07:43:31.414Z,21.76
2017-07-12T07:44:31.446Z,21.88
2017-07-12T07:45:31.815Z,21.92
2017-07-12T07:46:31.537Z,21.92
2017-07-12T07:47:31.572Z,22.01
2017-07-12T07:48:31.612Z,21.92
2017-07-12T07:49:31.725Z,22.02
2017-07-12T07:50:31.701Z,22.06
2017-07-12T07:51:31.743Z,22.22
2017-07-12T07:52:31.777Z,22.17
2017-07-12T07:53:31.825Z,22.22
2017-07-12T07:54:31.861Z,22.25
2017-07-12T07:55:31.909Z,22.35
2017-07-12T07:56:32.106Z,22.28
2017-07-12T07:57:31.985Z,22.41
2017-07-12T07:58:32.025Z,22.43
2017-07-12T07:59:32.069Z,22.43
2017-07-12T08:00:32.113Z,22.59
2017-07-12T08:01:32.150Z,22.6
2017-07-12T08:02:32.192Z,22.52
2017-07-12T08:03:32.252Z,22.65
2017-07-12T08:04:32.282Z,22.6
2017-07-12T08:05:32.349Z,22.74
2017-07-12T08:06:32.361Z,22.6
2017-07-12T08:07:32.402Z,22.69
2017-07-12T08:08:32.451Z,22.65
2017-07-12T08:09:32.484Z,22.8
2017-07-12T08:10:32.533Z,22.75
2017-07-12T08:11:32.568Z,22.83
2017-07-12T08:12:32.617Z,22.83
2017-07-12T08:13:32.653Z,22.92
2017-07-12T08:14:32.694Z,22.97
2017-07-12T08:15:32.804Z,23.07
2017-07-12T08:16:32.780Z,23.11
2017-07-12T08:17:32.831Z,23.22
2017-07-12T08:18:32.869Z,23.11
2017-07-12T08:19:32.905Z,23.17
2017-07-12T08:20:32.957Z,23.35
2017-07-12T08:21:33.000Z,23.5
2017-07-12T08:22:33.038Z,23.7
2017-07-12T08:23:33.084Z,23.87
2017-07-12T08:24:33.119Z,24.13
2017-07-12T08:25:33.170Z,24.52
2017-07-12T08:26:33.204Z,24.79
2017-07-12T08:27:33.586Z,25.12
2017-07-12T08:28:33.296Z,25.38
2017-07-12T08:29:33.346Z,25.56
2017-07-12T08:30:33.388Z,25.89
2017-07-12T08:31:33.434Z,26.01
2017-07-12T08:32:33.790Z,26.05
2017-07-12T08:33:33.524Z,26.09
2017-07-12T08:34:33.567Z,26.2
2017-07-12T08:35:33.613Z,26.21
2017-07-12T08:36:33.659Z,26.27
2017-07-12T08:37:33.706Z,26.01
2017-07-12T08:38:33.740Z,25.99
2017-07-12T08:39:33.795Z,25.98
2017-07-12T08:40:33.839Z,25.89
2017-07-12T08:41:33.875Z,25.75
2017-07-12T08:42:33.929Z,25.75
2017-07-12T08:43:33.962Z,25.59
2017-07-12T08:44:34.017Z,25.54
2017-07-12T08:45:34.053Z,25.44
2017-07-12T08:46:34.104Z,25.32
2017-07-12T08:47:34.154Z,25.2
2017-07-12T08:48:34.199Z,25.19
2017-07-12T08:49:34.229Z,25.2
2017-07-12T08:50:34.281Z,25.15
2017-07-12T08:51:34.331Z,25.17
2017-07-12T08:52:34.364Z,25.2
2017-07-12T08:53:34.415Z,25.22
2017-07-12T08:54:34.450Z,25.3
2017-07-12T08:55:34.506Z,25.53
2017-07-12T08:56:34.541Z,25.8
2017-07-12T08:57:34.592Z,26.09
2017-07-12T08:58:34.631Z,26.61
2017-07-12T08:59:34.676Z,26.91
2017-07-12T09:00:34.721Z,27.17
2017-07-12T09:01:34.775Z,27.33
2017-07-12T09:02:34.818Z,27.38
2017-07-12T09:03:34.867Z,27.42
2017-07-12T09:04:34.914Z,27.33
2017-07-12T09:05:34.957Z,27.36
2017-07-12T09:06:35.003Z,27.26
2017-07-12T09:07:35.048Z,27.35
2017-07-12T09:08:35.096Z,27.24
2017-07-12T09:09:35.146Z,27.24
2017-07-12T09:10:35.190Z,27.09
2017-07-12T09:11:35.227Z,27.02
2017-07-12T09:12:35.279Z,26.99
2017-07-12T09:13:35.325Z,27.05
2017-07-12T09:14:35.363Z,27.01
2017-07-12T09:15:35.409Z,26.95
2017-07-12T09:16:35.454Z,27.01
2017-07-12T09:17:35.505Z,27.02
2017-07-12T09:18:35.544Z,26.94
2017-07-12T09:19:35.590Z,27.01
2017-07-12T09:20:35.645Z,27.01
2017-07-12T09:21:35.681Z,27.09
2017-07-12T09:22:35.728Z,27.16
2017-07-12T09:23:35.775Z,27.17
2017-07-12T09:33:36.242Z,27.23
2017-07-12T09:34:36.281Z,27.21
2017-07-12T09:35:36.338Z,27.24
2017-07-12T09:36:36.372Z,27.23
2017-07-12T09:37:36.422Z,27.26
2017-07-12T09:38:36.475Z,27.35
2017-07-12T09:39:36.521Z,27.42
2017-07-12T09:40:36.565Z,27.42
2017-07-12T09:41:36.606Z,27.42
2017-07-12T09:42:36.660Z,27.42
2017-07-12T09:43:36.695Z,27.39
2017-07-12T09:44:36.752Z,27.43
2017-07-12T09:45:36.798Z,27.42
2017-07-12T09:46:36.834Z,27.42
2017-07-12T09:47:36.891Z,27.58
2017-07-12T09:48:36.931Z,27.46
2017-07-12T09:49:36.973Z,27.41
2017-07-12T09:50:37.029Z,27.36
2017-07-12T09:51:37.066Z,27.36
2017-07-12T09:52:37.119Z,27.31
2017-07-12T09:53:37.165Z,27.28
2017-07-12T09:54:37.216Z,27.24
2017-07-12T09:55:37.568Z,27.28
2017-07-12T09:56:37.306Z,27.32
2017-07-12T09:57:37.341Z,27.28
2017-07-12T09:58:37.395Z,27.33
2017-07-12T09:59:37.435Z,27.35
2017-07-12T10:00:37.481Z,27.36
2017-07-12T10:01:37.626Z,27.32
2017-07-12T10:02:37.581Z,27.32
2017-07-12T10:03:37.624Z,27.31
2017-07-12T10:04:37.684Z,27.29
2017-07-12T10:05:37.718Z,27.33
2017-07-12T10:06:37.756Z,27.26
2017-07-12T10:07:37.809Z,27.32
2017-07-12T10:08:37.856Z,27.26
2017-07-12T10:09:37.902Z,27.28
2017-07-12T10:10:37.954Z,27.32
2017-07-12T10:11:37.992Z,27.29
2017-07-12T10:12:38.039Z,27.28
2017-07-12T10:13:38.078Z,27.1
2017-07-12T10:14:38.124Z,26.98
2017-07-12T10:15:38.168Z,26.94
2017-07-12T10:16:38.217Z,26.79
2017-07-12T10:17:38.271Z,26.69
2017-07-12T10:18:38.306Z,26.69
2017-07-12T10:19:38.351Z,26.64
2017-07-12T10:20:38.403Z,26.49
2017-07-12T10:21:38.444Z,26.4
2017-07-12T10:22:38.489Z,26.37
2017-07-12T10:23:38.534Z,26.28
2017-07-12T10:24:38.584Z,26.31
2017-07-12T10:25:38.648Z,26.29
2017-07-12T10:26:38.672Z,26.31
2017-07-12T10:27:38.843Z,26.35
2017-07-12T10:28:38.773Z,26.32
2017-07-12T10:29:38.811Z,26.25
2017-07-12T10:30:38.852Z,26.22
2017-07-12T10:31:38.891Z,26.08
2017-07-12T10:32:38.942Z,26.06
2017-07-12T10:33:38.979Z,25.9
2017-07-12T10:34:39.032Z,25.83
2017-07-12T10:35:39.076Z,25.87
2017-07-12T10:36:39.437Z,25.71
2017-07-12T10:37:39.156Z,25.68
2017-07-12T10:38:39.200Z,25.75
2017-07-12T10:39:39.245Z,25.89
2017-07-12T10:40:39.297Z,25.98
2017-07-12T10:41:39.333Z,26.11
2017-07-12T10:42:39.386Z,26.09
2017-07-12T10:43:39.426Z,26.36
2017-07-12T10:44:39.476Z,26.46
2017-07-12T10:45:39.519Z,26.62
2017-07-12T10:46:39.565Z,26.77
2017-07-12T10:47:39.603Z,26.94
2017-07-12T10:48:39.655Z,27.05
2017-07-12T10:49:39.701Z,27.1
2017-07-12T10:50:39.740Z,27.24
2017-07-12T10:51:39.793Z,27.26
2017-07-12T10:52:39.838Z,27.33
2017-07-12T10:53:39.875Z,27.31
2017-07-12T10:54:39.926Z,27.24
2017-07-12T10:55:39.972Z,27.16
2017-07-12T10:56:40.019Z,26.91
2017-07-12T10:57:40.062Z,26.83
2017-07-12T10:58:40.109Z,26.8
2017-07-12T10:59:40.145Z,26.62
2017-07-12T11:00:40.199Z,26.57
2017-07-12T11:01:40.234Z,26.42
2017-07-12T11:02:40.288Z,26.37
2017-07-12T11:03:40.334Z,26.21
2017-07-12T11:04:40.369Z,26.18
2017-07-12T11:05:40.424Z,26.22
2017-07-12T11:06:40.458Z,26.06
2017-07-12T11:07:40.511Z,26.08
2017-07-12T11:08:40.776Z,25.98
2017-07-12T11:09:40.599Z,26.05
2017-07-12T11:10:40.644Z,26.08
2017-07-12T11:11:40.681Z,25.94
2017-07-12T11:12:40.736Z,25.9
2017-07-12T11:13:40.769Z,25.87
2017-07-12T11:14:40.820Z,25.77
2017-07-12T11:15:40.862Z,25.65
2017-07-12T11:16:40.903Z,25.59
2017-07-12T11:17:40.950Z,25.39
2017-07-12T11:18:40.988Z,25.39
2017-07-12T11:19:41.031Z,25.19
2017-07-12T11:20:41.082Z,25.15
2017-07-12T11:21:41.118Z,25.15
2017-07-12T11:22:41.169Z,25.05
2017-07-12T11:23:41.204Z,24.94
2017-07-12T11:24:41.252Z,24.95
2017-07-12T11:25:41.297Z,24.87
2017-07-12T11:26:41.343Z,24.79
2017-07-12T11:27:41.379Z,24.77
2017-07-12T11:28:41.425Z,24.75
2017-07-12T11:29:41.470Z,24.8
2017-07-12T11:30:41.513Z,24.76
2017-07-12T11:31:41.550Z,24.67
2017-07-12T11:32:41.598Z,24.75
2017-07-12T11:33:41.635Z,24.71
2017-07-12T11:34:41.684Z,24.68
2017-07-12T11:35:41.718Z,24.76
2017-07-12T11:36:41.769Z,24.71
2017-07-12T11:37:41.813Z,24.77
2017-07-12T11:38:41.848Z,24.77
2017-07-12T11:39:41.899Z,24.71
2017-07-12T11:40:41.937Z,24.71
2017-07-12T11:41:41.978Z,24.69
2017-07-12T11:42:42.028Z,24.61
2017-07-12T11:43:42.070Z,24.59
2017-07-12T11:44:42.104Z,24.56
2017-07-12T11:45:42.155Z,24.52
2017-07-12T11:46:42.189Z,24.52
2017-07-12T11:47:42.232Z,24.44
2017-07-12T11:48:42.285Z,24.44
2017-07-12T11:49:42.318Z,24.49
2017-07-12T11:50:42.368Z,24.41
2017-07-12T11:51:42.402Z,24.39
2017-07-12T11:52:42.451Z,24.32
2017-07-12T11:53:42.486Z,24.34
2017-07-12T11:54:42.538Z,24.32
2017-07-12T11:55:42.578Z,24.27
2017-07-12T11:56:42.616Z,24.22
2017-07-12T11:57:42.665Z,24.32
2017-07-12T11:58:42.705Z,24.23
2017-07-12T11:59:42.749Z,24.17
2017-07-12T12:00:42.784Z,24.14
2017-07-12T12:01:42.835Z,24.19
2017-07-12T12:02:42.876Z,24.1
2017-07-12T12:03:42.921Z,24.22
2017-07-12T12:04:42.961Z,24.13
2017-07-12T12:05:43.004Z,24.1
2017-07-12T12:06:43.036Z,24.12
2017-07-12T12:07:43.088Z,24.1
2017-07-12T12:08:43.130Z,24.04
2017-07-12T12:09:43.163Z,23.95
2017-07-12T12:10:43.212Z,23.89
2017-07-12T12:11:43.257Z,23.75
2017-07-12T12:12:43.289Z,23.79
2017-07-12T12:13:43.341Z,23.6
2017-07-12T12:14:43.375Z,23.61
2017-07-12T12:15:43.424Z,23.55
2017-07-12T12:16:43.469Z,23.47
2017-07-12T12:17:43.501Z,23.47
2017-07-12T12:18:43.549Z,23.4
2017-07-12T12:19:43.590Z,23.42
2017-07-12T12:20:43.626Z,23.31
2017-07-12T12:21:43.677Z,23.26
2017-07-12T12:22:43.711Z,23.26
2017-07-12T12:23:43.750Z,23.22
2017-07-12T12:24:43.803Z,23.2
2017-07-12T12:25:43.839Z,23.19
2017-07-12T12:26:43.878Z,23.2
2017-07-12T12:27:43.927Z,23.07
2017-07-12T12:28:43.961Z,23.07
2017-07-12T12:29:44.013Z,23.12
2017-07-12T12:30:44.044Z,23.04
2017-07-12T12:31:44.098Z,22.92
2017-07-12T12:32:44.128Z,22.92
2017-07-12T12:33:44.490Z,22.9
2017-07-12T12:34:44.219Z,22.92
2017-07-12T12:35:44.252Z,22.92
2017-07-12T12:36:44.303Z,22.84
2017-07-12T12:37:44.333Z,22.87
2017-07-12T12:38:44.384Z,22.78
2017-07-12T12:39:44.417Z,22.75
2017-07-12T12:40:44.467Z,22.74
2017-07-12T12:41:44.508Z,22.69
2017-07-12T12:42:44.547Z,22.65
2017-07-12T12:43:44.592Z,22.53
2017-07-12T12:44:44.626Z,22.53
2017-07-12T12:45:44.674Z,22.5
2017-07-12T12:46:44.710Z,22.54
2017-07-12T12:47:44.758Z,22.43
2017-07-12T12:48:44.789Z,22.28
2017-07-12T12:49:44.837Z,22.34
2017-07-12T12:50:44.873Z,22.29
2017-07-12T12:51:45.232Z,22.16
2017-07-12T12:52:44.968Z,22.12
2017-07-12T12:53:44.998Z,22.04
2017-07-12T12:54:45.047Z,22.01
2017-07-12T12:55:45.079Z,22.09
2017-07-12T12:56:45.475Z,21.92
2017-07-12T12:57:45.180Z,21.95
2017-07-12T12:58:45.213Z,21.91
2017-07-12T12:59:45.251Z,21.83
2017-07-12T13:00:45.294Z,21.81
2017-07-12T13:01:45.327Z,21.85
2017-07-12T13:02:45.373Z,21.85
2017-07-12T13:03:45.422Z,21.78